sensor_id;sensor_type;location;lat;lon;timestamp;pressure;altitude;pressure_sealevel;temperature;humidity
45323;BME280;31382;50.200;8.674;2023-07-20T00:02:18;100028.78;;;21.73;45.18
45323;BME280;31382;50.200;8.674;2023-07-20T00:07:22;100033.03;;;21.64;45.64
45323;BME280;31382;50.200;8.674;2023-07-20T00:12:24;100045.16;;;21.46;46.12
45323;BME280;31382;50.200;8.674;2023-07-20T00:17:25;100034.22;;;21.46;46.64
45323;BME280;31382;50.200;8.674;2023-07-20T00:22:26;100038.66;;;21.30;47.34
45323;BME280;31382;50.200;8.674;2023-07-20T00:27:28;100046.25;;;21.45;46.60
45323;BME280;31382;50.200;8.674;2023-07-20T00:32:29;100036.88;;;21.41;46.67
45323;BME280;31382;50.200;8.674;2023-07-20T00:37:31;100039.25;;;21.54;46.83
45323;BME280;31382;50.200;8.674;2023-07-20T00:42:33;100037.34;;;21.55;46.30
45323;BME280;31382;50.200;8.674;2023-07-20T00:47:36;100048.06;;;21.62;46.31
45323;BME280;31382;50.200;8.674;2023-07-20T00:52:38;100054.34;;;21.62;46.49
45323;BME280;31382;50.200;8.674;2023-07-20T00:57:43;100061.13;;;21.54;46.57
45323;BME280;31382;50.200;8.674;2023-07-20T01:02:45;100058.81;;;21.46;46.63
45323;BME280;31382;50.200;8.674;2023-07-20T01:08:02;100058.75;;;21.41;47.20
45323;BME280;31382;50.200;8.674;2023-07-20T01:13:06;100056.47;;;21.33;46.94
45323;BME280;31382;50.200;8.674;2023-07-20T01:18:10;100060.28;;;21.32;47.22
45323;BME280;31382;50.200;8.674;2023-07-20T01:34:18;100053.81;;;20.99;48.19
45323;BME280;31382;50.200;8.674;2023-07-20T01:39:21;100049.94;;;20.95;48.52
45323;BME280;31382;50.200;8.674;2023-07-20T01:44:22;100060.25;;;20.88;48.55
45323;BME280;31382;50.200;8.674;2023-07-20T01:49:24;100068.44;;;20.88;48.79
45323;BME280;31382;50.200;8.674;2023-07-20T01:54:25;100069.50;;;20.87;48.83
45323;BME280;31382;50.200;8.674;2023-07-20T01:59:27;100061.56;;;20.85;49.10
45323;BME280;31382;50.200;8.674;2023-07-20T02:04:28;100071.09;;;20.83;48.85
45323;BME280;31382;50.200;8.674;2023-07-20T02:09:29;100073.75;;;20.77;49.06
45323;BME280;31382;50.200;8.674;2023-07-20T02:14:31;100068.28;;;20.77;49.44
45323;BME280;31382;50.200;8.674;2023-07-20T02:19:32;100077.06;;;20.79;49.01
45323;BME280;31382;50.200;8.674;2023-07-20T02:24:34;100077.41;;;20.66;49.82
45323;BME280;31382;50.200;8.674;2023-07-20T02:29:35;100078.97;;;20.62;49.89
45323;BME280;31382;50.200;8.674;2023-07-20T02:34:37;100065.56;;;20.60;49.80
45323;BME280;31382;50.200;8.674;2023-07-20T02:39:39;100063.06;;;20.59;49.91
45323;BME280;31382;50.200;8.674;2023-07-20T02:44:40;100072.47;;;20.51;50.33
45323;BME280;31382;50.200;8.674;2023-07-20T02:49:42;100067.44;;;20.26;50.93
45323;BME280;31382;50.200;8.674;2023-07-20T02:54:43;100074.13;;;20.18;51.11
45323;BME280;31382;50.200;8.674;2023-07-20T02:59:45;100074.97;;;20.19;51.12
45323;BME280;31382;50.200;8.674;2023-07-20T03:04:46;100072.06;;;20.09;51.79
45323;BME280;31382;50.200;8.674;2023-07-20T03:09:48;100077.28;;;20.10;51.33
45323;BME280;31382;50.200;8.674;2023-07-20T03:14:49;100074.84;;;19.97;52.40
45323;BME280;31382;50.200;8.674;2023-07-20T03:19:51;100064.78;;;20.14;51.64
45323;BME280;31382;50.200;8.674;2023-07-20T03:24:53;100071.13;;;20.20;51.36
45323;BME280;31382;50.200;8.674;2023-07-20T03:29:54;100072.06;;;20.26;51.37
45323;BME280;31382;50.200;8.674;2023-07-20T03:34:55;100064.72;;;20.26;51.29
45323;BME280;31382;50.200;8.674;2023-07-20T03:39:57;100072.31;;;20.24;51.82
45323;BME280;31382;50.200;8.674;2023-07-20T03:44:58;100070.81;;;20.33;51.45
45323;BME280;31382;50.200;8.674;2023-07-20T03:49:59;100073.47;;;20.45;51.55
45323;BME280;31382;50.200;8.674;2023-07-20T03:55:01;100074.81;;;20.43;51.80
45323;BME280;31382;50.200;8.674;2023-07-20T04:00:03;100068.59;;;20.47;51.60
45323;BME280;31382;50.200;8.674;2023-07-20T04:05:08;100081.75;;;20.50;51.66
45323;BME280;31382;50.200;8.674;2023-07-20T04:10:09;100080.75;;;20.39;52.09
45323;BME280;31382;50.200;8.674;2023-07-20T04:15:11;100083.59;;;20.45;52.03
45323;BME280;31382;50.200;8.674;2023-07-20T04:20:13;100085.22;;;20.46;51.96
45323;BME280;31382;50.200;8.674;2023-07-20T04:25:14;100082.50;;;20.46;52.05
45323;BME280;31382;50.200;8.674;2023-07-20T04:30:17;100086.47;;;20.38;51.95
45323;BME280;31382;50.200;8.674;2023-07-20T04:35:53;100093.75;;;20.32;52.30
45323;BME280;31382;50.200;8.674;2023-07-20T04:40:54;100099.69;;;20.29;51.92
45323;BME280;31382;50.200;8.674;2023-07-20T04:45:56;100100.00;;;20.16;52.30
45323;BME280;31382;50.200;8.674;2023-07-20T04:50:58;100103.72;;;20.10;52.80
45323;BME280;31382;50.200;8.674;2023-07-20T04:55:59;100113.91;;;20.14;52.91
45323;BME280;31382;50.200;8.674;2023-07-20T05:01:00;100105.66;;;20.26;52.73
45323;BME280;31382;50.200;8.674;2023-07-20T05:06:02;100109.56;;;20.30;52.69
45323;BME280;31382;50.200;8.674;2023-07-20T05:11:03;100118.06;;;20.34;52.48
45323;BME280;31382;50.200;8.674;2023-07-20T05:16:05;100114.50;;;20.33;52.75
45323;BME280;31382;50.200;8.674;2023-07-20T05:21:06;100117.69;;;20.42;52.46
45323;BME280;31382;50.200;8.674;2023-07-20T05:26:09;100118.00;;;20.46;52.05
45323;BME280;31382;50.200;8.674;2023-07-20T05:31:10;100113.63;;;20.62;52.42
45323;BME280;31382;50.200;8.674;2023-07-20T05:36:12;100114.66;;;20.72;52.34
45323;BME280;31382;50.200;8.674;2023-07-20T05:41:13;100119.78;;;20.86;52.27
45323;BME280;31382;50.200;8.674;2023-07-20T05:46:14;100120.94;;;20.90;51.95
45323;BME280;31382;50.200;8.674;2023-07-20T05:51:16;100122.50;;;20.86;52.06
45323;BME280;31382;50.200;8.674;2023-07-20T05:56:18;100128.59;;;20.93;51.58
45323;BME280;31382;50.200;8.674;2023-07-20T06:01:19;100122.47;;;21.03;51.58
45323;BME280;31382;50.200;8.674;2023-07-20T06:06:21;100139.47;;;21.27;51.33
45323;BME280;31382;50.200;8.674;2023-07-20T06:11:22;100140.13;;;21.34;51.46
45323;BME280;31382;50.200;8.674;2023-07-20T06:16:24;100150.38;;;21.61;50.62
45323;BME280;31382;50.200;8.674;2023-07-20T06:21:26;100153.28;;;21.76;50.06
45323;BME280;31382;50.200;8.674;2023-07-20T06:26:27;100151.66;;;21.75;50.50
45323;BME280;31382;50.200;8.674;2023-07-20T06:31:31;100154.59;;;21.68;50.08
45323;BME280;31382;50.200;8.674;2023-07-20T06:36:32;100154.72;;;21.78;50.32
45323;BME280;31382;50.200;8.674;2023-07-20T06:41:34;100151.22;;;22.10;49.71
45323;BME280;31382;50.200;8.674;2023-07-20T06:46:38;100152.13;;;22.16;49.63
45323;BME280;31382;50.200;8.674;2023-07-20T06:51:39;100151.00;;;22.39;49.36
45323;BME280;31382;50.200;8.674;2023-07-20T06:56:41;100153.53;;;22.46;48.96
45323;BME280;31382;50.200;8.674;2023-07-20T07:01:46;100162.03;;;22.22;49.32
45323;BME280;31382;50.200;8.674;2023-07-20T07:06:48;100163.06;;;22.16;49.17
45323;BME280;31382;50.200;8.674;2023-07-20T07:11:49;100167.91;;;22.09;49.15
45323;BME280;31382;50.200;8.674;2023-07-20T07:16:51;100167.69;;;22.15;49.24
45323;BME280;31382;50.200;8.674;2023-07-20T07:21:58;100169.91;;;21.91;49.54
45323;BME280;31382;50.200;8.674;2023-07-20T07:27:01;100169.72;;;21.76;49.66
45323;BME280;31382;50.200;8.674;2023-07-20T07:32:03;100174.88;;;21.94;49.67
45323;BME280;31382;50.200;8.674;2023-07-20T07:37:05;100171.03;;;21.95;49.19
45323;BME280;31382;50.200;8.674;2023-07-20T07:42:07;100174.81;;;21.89;48.91
45323;BME280;31382;50.200;8.674;2023-07-20T07:47:09;100178.28;;;22.07;48.50
45323;BME280;31382;50.200;8.674;2023-07-20T07:52:10;100185.22;;;22.36;48.27
45323;BME280;31382;50.200;8.674;2023-07-20T07:57:12;100174.84;;;22.71;47.78
45323;BME280;31382;50.200;8.674;2023-07-20T08:02:15;100179.34;;;22.55;47.48
45323;BME280;31382;50.200;8.674;2023-07-20T08:07:16;100167.56;;;22.49;47.67
45323;BME280;31382;50.200;8.674;2023-07-20T08:12:18;100170.94;;;22.62;47.33
45323;BME280;31382;50.200;8.674;2023-07-20T08:17:20;100151.78;;;22.99;46.70
45323;BME280;31382;50.200;8.674;2023-07-20T08:22:22;100177.53;;;22.98;46.37
45323;BME280;31382;50.200;8.674;2023-07-20T08:27:24;100174.28;;;22.69;46.49
45323;BME280;31382;50.200;8.674;2023-07-20T08:32:26;100173.19;;;22.70;46.77
45323;BME280;31382;50.200;8.674;2023-07-20T08:37:28;100175.38;;;22.68;46.09
45323;BME280;31382;50.200;8.674;2023-07-20T08:42:29;100172.00;;;22.61;46.29
45323;BME280;31382;50.200;8.674;2023-07-20T08:47:31;100164.41;;;23.43;44.70
45323;BME280;31382;50.200;8.674;2023-07-20T08:52:34;100166.34;;;23.47;44.64
45323;BME280;31382;50.200;8.674;2023-07-20T08:57:36;100167.25;;;23.63;44.17
45323;BME280;31382;50.200;8.674;2023-07-20T09:02:38;100173.56;;;23.59;43.83
45323;BME280;31382;50.200;8.674;2023-07-20T09:07:42;100177.63;;;23.51;44.11
45323;BME280;31382;50.200;8.674;2023-07-20T09:12:44;100170.06;;;23.26;44.58
45323;BME280;31382;50.200;8.674;2023-07-20T09:17:50;100177.53;;;23.30;44.44
45323;BME280;31382;50.200;8.674;2023-07-20T09:22:52;100176.50;;;23.47;44.00
45323;BME280;31382;50.200;8.674;2023-07-20T09:27:54;100163.75;;;23.73;44.04
45323;BME280;31382;50.200;8.674;2023-07-20T09:32:57;100171.72;;;23.74;43.52
45323;BME280;31382;50.200;8.674;2023-07-20T09:38:00;100165.91;;;23.66;43.46
45323;BME280;31382;50.200;8.674;2023-07-20T09:43:07;100158.31;;;23.78;42.86
45323;BME280;31382;50.200;8.674;2023-07-20T09:48:12;100157.53;;;23.88;42.95
45323;BME280;31382;50.200;8.674;2023-07-20T09:53:18;100158.09;;;24.00;42.04
45323;BME280;31382;50.200;8.674;2023-07-20T09:58:20;100160.63;;;24.22;41.59
45323;BME280;31382;50.200;8.674;2023-07-20T10:03:22;100157.63;;;24.24;41.14
45323;BME280;31382;50.200;8.674;2023-07-20T10:08:25;100148.81;;;24.27;40.47
45323;BME280;31382;50.200;8.674;2023-07-20T10:13:30;100148.28;;;24.30;40.17
45323;BME280;31382;50.200;8.674;2023-07-20T10:19:02;100148.25;;;24.25;40.10
45323;BME280;31382;50.200;8.674;2023-07-20T10:24:04;100134.31;;;24.83;39.14
45323;BME280;31382;50.200;8.674;2023-07-20T10:29:07;100136.25;;;24.82;38.92
45323;BME280;31382;50.200;8.674;2023-07-20T10:34:09;100120.56;;;24.52;38.81
45323;BME280;31382;50.200;8.674;2023-07-20T10:39:25;100108.78;;;24.67;38.16
45323;BME280;31382;50.200;8.674;2023-07-20T10:44:29;100120.03;;;24.76;38.32
45323;BME280;31382;50.200;8.674;2023-07-20T10:49:34;100104.84;;;25.04;37.59
45323;BME280;31382;50.200;8.674;2023-07-20T10:54:46;100102.06;;;25.35;38.00
45323;BME280;31382;50.200;8.674;2023-07-20T10:59:49;100114.50;;;25.22;37.41
45323;BME280;31382;50.200;8.674;2023-07-20T11:04:50;100108.16;;;25.11;37.10
45323;BME280;31382;50.200;8.674;2023-07-20T11:09:52;100109.50;;;25.29;37.33
45323;BME280;31382;50.200;8.674;2023-07-20T11:15:13;100111.97;;;25.15;37.21
45323;BME280;31382;50.200;8.674;2023-07-20T11:20:16;100106.31;;;25.66;36.86
45323;BME280;31382;50.200;8.674;2023-07-20T11:25:20;100088.72;;;25.62;36.44
45323;BME280;31382;50.200;8.674;2023-07-20T11:30:21;100090.50;;;25.38;36.22
45323;BME280;31382;50.200;8.674;2023-07-20T11:35:23;100088.59;;;25.23;37.08
45323;BME280;31382;50.200;8.674;2023-07-20T11:40:24;100090.56;;;25.12;36.95
45323;BME280;31382;50.200;8.674;2023-07-20T11:45:28;100091.88;;;25.20;36.95
45323;BME280;31382;50.200;8.674;2023-07-20T11:50:39;100084.44;;;25.36;36.59
45323;BME280;31382;50.200;8.674;2023-07-20T11:55:41;100074.00;;;25.38;36.43
45323;BME280;31382;50.200;8.674;2023-07-20T12:00:44;100072.63;;;25.85;35.25
45323;BME280;31382;50.200;8.674;2023-07-20T12:05:45;100053.25;;;26.05;34.90
45323;BME280;31382;50.200;8.674;2023-07-20T12:11:02;100068.97;;;26.05;35.09
45323;BME280;31382;50.200;8.674;2023-07-20T12:16:09;100048.84;;;26.04;35.66
45323;BME280;31382;50.200;8.674;2023-07-20T12:21:11;100069.84;;;25.95;35.89
45323;BME280;31382;50.200;8.674;2023-07-20T12:26:14;100054.81;;;26.51;35.67
45323;BME280;31382;50.200;8.674;2023-07-20T12:31:16;100048.72;;;26.83;34.32
45323;BME280;31382;50.200;8.674;2023-07-20T12:36:18;100042.69;;;27.54;34.13
45323;BME280;31382;50.200;8.674;2023-07-20T12:41:20;100046.34;;;27.49;33.89
45323;BME280;31382;50.200;8.674;2023-07-20T12:46:21;100030.34;;;27.46;33.36
45323;BME280;31382;50.200;8.674;2023-07-20T12:51:23;100040.06;;;27.43;33.27
45323;BME280;31382;50.200;8.674;2023-07-20T12:56:25;100035.06;;;27.45;33.25
45323;BME280;31382;50.200;8.674;2023-07-20T13:01:29;100028.13;;;27.67;33.30
45323;BME280;31382;50.200;8.674;2023-07-20T13:06:31;100023.78;;;27.80;32.43
45323;BME280;31382;50.200;8.674;2023-07-20T13:11:34;100010.06;;;27.56;32.48
45323;BME280;31382;50.200;8.674;2023-07-20T13:16:36;100018.28;;;27.61;32.39
45323;BME280;31382;50.200;8.674;2023-07-20T13:21:37;100018.38;;;27.75;32.21
45323;BME280;31382;50.200;8.674;2023-07-20T13:26:39;100015.69;;;27.88;31.86
45323;BME280;31382;50.200;8.674;2023-07-20T13:31:40;100007.16;;;27.66;32.02
45323;BME280;31382;50.200;8.674;2023-07-20T13:36:43;99997.03;;;28.13;31.30
45323;BME280;31382;50.200;8.674;2023-07-20T13:41:45;99995.66;;;28.76;30.94
45323;BME280;31382;50.200;8.674;2023-07-20T13:46:47;99995.16;;;28.74;30.43
45323;BME280;31382;50.200;8.674;2023-07-20T13:51:49;99995.66;;;28.90;30.47
45323;BME280;31382;50.200;8.674;2023-07-20T13:57:11;99989.69;;;28.55;29.89
45323;BME280;31382;50.200;8.674;2023-07-20T14:02:14;99984.00;;;28.33;30.45
45323;BME280;31382;50.200;8.674;2023-07-20T14:07:19;99987.13;;;28.12;30.21
45323;BME280;31382;50.200;8.674;2023-07-20T14:12:20;99975.44;;;28.15;29.72
45323;BME280;31382;50.200;8.674;2023-07-20T14:17:22;99986.25;;;27.98;29.99
45323;BME280;31382;50.200;8.674;2023-07-20T14:22:23;99984.75;;;27.86;29.44
45323;BME280;31382;50.200;8.674;2023-07-20T14:27:27;99990.34;;;27.81;29.71
45323;BME280;31382;50.200;8.674;2023-07-20T14:32:29;99980.75;;;28.12;30.17
45323;BME280;31382;50.200;8.674;2023-07-20T14:37:30;99979.00;;;28.48;28.32
45323;BME280;31382;50.200;8.674;2023-07-20T14:42:32;99974.47;;;28.25;28.15
45323;BME280;31382;50.200;8.674;2023-07-20T14:47:36;99977.47;;;28.09;27.88
45323;BME280;31382;50.200;8.674;2023-07-20T14:52:38;99975.94;;;27.84;28.08
45323;BME280;31382;50.200;8.674;2023-07-20T14:57:49;99961.41;;;27.79;27.99
45323;BME280;31382;50.200;8.674;2023-07-20T15:02:51;99963.16;;;29.10;26.19
45323;BME280;31382;50.200;8.674;2023-07-20T15:07:57;99969.81;;;29.22;26.33
45323;BME280;31382;50.200;8.674;2023-07-20T15:12:58;99959.81;;;29.49;25.62
45323;BME280;31382;50.200;8.674;2023-07-20T15:18:00;99953.00;;;29.33;25.66
45323;BME280;31382;50.200;8.674;2023-07-20T15:23:01;99956.34;;;29.80;25.76
45323;BME280;31382;50.200;8.674;2023-07-20T15:28:03;99942.81;;;30.01;25.44
45323;BME280;31382;50.200;8.674;2023-07-20T15:33:04;99933.94;;;30.44;24.47
45323;BME280;31382;50.200;8.674;2023-07-20T15:38:09;99944.03;;;30.40;24.55
45323;BME280;31382;50.200;8.674;2023-07-20T15:43:10;99934.63;;;30.58;25.48
45323;BME280;31382;50.200;8.674;2023-07-20T15:48:15;99937.22;;;30.55;25.03
45323;BME280;31382;50.200;8.674;2023-07-20T15:53:17;99935.94;;;29.76;25.33
45323;BME280;31382;50.200;8.674;2023-07-20T15:58:19;99935.50;;;29.46;25.71
45323;BME280;31382;50.200;8.674;2023-07-20T16:03:20;99932.03;;;29.40;25.51
45323;BME280;31382;50.200;8.674;2023-07-20T16:08:21;99923.22;;;28.88;25.86
45323;BME280;31382;50.200;8.674;2023-07-20T16:13:23;99924.75;;;28.53;26.10
45323;BME280;31382;50.200;8.674;2023-07-20T16:18:25;99920.03;;;28.53;26.21
45323;BME280;31382;50.200;8.674;2023-07-20T16:23:26;99918.59;;;28.42;26.35
45323;BME280;31382;50.200;8.674;2023-07-20T16:28:28;99927.56;;;28.34;26.51
45323;BME280;31382;50.200;8.674;2023-07-20T16:33:29;99923.63;;;28.07;26.57
45323;BME280;31382;50.200;8.674;2023-07-20T16:38:32;99908.34;;;27.96;27.29
45323;BME280;31382;50.200;8.674;2023-07-20T16:43:44;99915.63;;;27.92;27.15
45323;BME280;31382;50.200;8.674;2023-07-20T16:48:48;99906.50;;;27.91;27.92
45323;BME280;31382;50.200;8.674;2023-07-20T16:53:52;99905.75;;;27.85;28.12
45323;BME280;31382;50.200;8.674;2023-07-20T16:58:54;99906.81;;;27.70;28.49
45323;BME280;31382;50.200;8.674;2023-07-20T17:03:55;99904.16;;;27.65;29.49
45323;BME280;31382;50.200;8.674;2023-07-20T17:08:57;99909.75;;;27.60;29.93
45323;BME280;31382;50.200;8.674;2023-07-20T17:14:01;99911.91;;;27.44;30.04
45323;BME280;31382;50.200;8.674;2023-07-20T17:19:03;99917.66;;;27.29;30.56
45323;BME280;31382;50.200;8.674;2023-07-20T17:24:05;99908.13;;;27.21;30.80
45323;BME280;31382;50.200;8.674;2023-07-20T17:29:07;99910.56;;;27.23;30.72
45323;BME280;31382;50.200;8.674;2023-07-20T17:34:08;99907.94;;;27.13;30.86
45323;BME280;31382;50.200;8.674;2023-07-20T17:39:10;99904.13;;;27.08;31.00
45323;BME280;31382;50.200;8.674;2023-07-20T17:44:11;99904.50;;;27.02;31.02
45323;BME280;31382;50.200;8.674;2023-07-20T17:49:13;99903.38;;;27.03;31.08
45323;BME280;31382;50.200;8.674;2023-07-20T17:54:14;99904.19;;;27.27;31.75
45323;BME280;31382;50.200;8.674;2023-07-20T17:59:16;99893.84;;;27.52;30.90
45323;BME280;31382;50.200;8.674;2023-07-20T18:04:17;99891.44;;;27.64;31.26
45323;BME280;31382;50.200;8.674;2023-07-20T18:09:19;99886.91;;;27.55;31.08
45323;BME280;31382;50.200;8.674;2023-07-20T18:14:20;99890.00;;;27.34;31.24
45323;BME280;31382;50.200;8.674;2023-07-20T18:19:22;99901.31;;;27.14;31.85
45323;BME280;31382;50.200;8.674;2023-07-20T18:24:23;99895.47;;;26.96;31.92
45323;BME280;31382;50.200;8.674;2023-07-20T18:29:25;99896.50;;;26.81;31.95
45323;BME280;31382;50.200;8.674;2023-07-20T18:34:26;99893.09;;;26.65;32.12
45323;BME280;31382;50.200;8.674;2023-07-20T18:39:29;99891.91;;;26.47;32.66
45323;BME280;31382;50.200;8.674;2023-07-20T18:44:30;99887.75;;;26.26;33.00
45323;BME280;31382;50.200;8.674;2023-07-20T18:49:32;99893.47;;;26.05;33.59
45323;BME280;31382;50.200;8.674;2023-07-20T18:54:34;99894.72;;;25.89;33.94
45323;BME280;31382;50.200;8.674;2023-07-20T18:59:35;99897.91;;;25.67;33.88
45323;BME280;31382;50.200;8.674;2023-07-20T19:04:36;99900.53;;;25.48;34.29
45323;BME280;31382;50.200;8.674;2023-07-20T19:09:38;99910.84;;;25.27;34.38
45323;BME280;31382;50.200;8.674;2023-07-20T19:14:39;99913.16;;;25.04;35.05
45323;BME280;31382;50.200;8.674;2023-07-20T19:19:41;99912.16;;;24.85;35.48
45323;BME280;31382;50.200;8.674;2023-07-20T19:24:43;99918.25;;;24.66;36.08
45323;BME280;31382;50.200;8.674;2023-07-20T19:29:44;99918.59;;;24.39;36.21
45323;BME280;31382;50.200;8.674;2023-07-20T19:34:46;99924.38;;;24.22;36.35
45323;BME280;31382;50.200;8.674;2023-07-20T19:39:47;99938.97;;;24.02;36.66
45323;BME280;31382;50.200;8.674;2023-07-20T19:44:49;99930.19;;;23.85;37.29
45323;BME280;31382;50.200;8.674;2023-07-20T19:49:51;99938.66;;;23.73;37.44
45323;BME280;31382;50.200;8.674;2023-07-20T19:54:52;99936.47;;;23.65;37.86
45323;BME280;31382;50.200;8.674;2023-07-20T19:59:54;99942.75;;;23.55;37.91
45323;BME280;31382;50.200;8.674;2023-07-20T20:04:56;99936.97;;;23.41;38.25
45323;BME280;31382;50.200;8.674;2023-07-20T20:09:57;99936.69;;;23.27;38.33
45323;BME280;31382;50.200;8.674;2023-07-20T20:14:59;99928.66;;;23.10;39.01
45323;BME280;31382;50.200;8.674;2023-07-20T20:20:03;99934.91;;;22.95;39.25
45323;BME280;31382;50.200;8.674;2023-07-20T20:25:05;99924.19;;;22.89;40.01
45323;BME280;31382;50.200;8.674;2023-07-20T20:30:08;99922.50;;;22.77;40.06
45323;BME280;31382;50.200;8.674;2023-07-20T20:35:10;99929.84;;;22.67;40.20
45323;BME280;31382;50.200;8.674;2023-07-20T20:40:12;99924.31;;;22.56;40.75
45323;BME280;31382;50.200;8.674;2023-07-20T20:45:14;99920.97;;;22.44;41.15
45323;BME280;31382;50.200;8.674;2023-07-20T20:50:16;99920.34;;;22.32;41.38
45323;BME280;31382;50.200;8.674;2023-07-20T20:55:21;99917.16;;;22.08;41.84
45323;BME280;31382;50.200;8.674;2023-07-20T21:00:22;99919.84;;;22.03;42.17
45323;BME280;31382;50.200;8.674;2023-07-20T21:05:24;99918.16;;;21.96;42.27
45323;BME280;31382;50.200;8.674;2023-07-20T21:10:26;99911.56;;;21.92;42.41
45323;BME280;31382;50.200;8.674;2023-07-20T21:15:27;99913.44;;;21.87;42.45
45323;BME280;31382;50.200;8.674;2023-07-20T21:20:29;99908.06;;;21.70;42.63
45323;BME280;31382;50.200;8.674;2023-07-20T21:25:31;99909.09;;;21.58;43.16
45323;BME280;31382;50.200;8.674;2023-07-20T21:30:32;99908.72;;;21.50;43.35
45323;BME280;31382;50.200;8.674;2023-07-20T21:35:34;99910.06;;;21.47;43.28
45323;BME280;31382;50.200;8.674;2023-07-20T21:40:38;99909.25;;;21.47;43.42
45323;BME280;31382;50.200;8.674;2023-07-20T21:45:39;99908.59;;;21.39;43.73
45323;BME280;31382;50.200;8.674;2023-07-20T21:50:49;99898.00;;;21.43;43.95
45323;BME280;31382;50.200;8.674;2023-07-20T21:55:51;99890.13;;;21.47;44.14
45323;BME280;31382;50.200;8.674;2023-07-20T22:00:52;99904.63;;;21.52;44.44
45323;BME280;31382;50.200;8.674;2023-07-20T22:05:56;99901.88;;;21.47;44.86
45323;BME280;31382;50.200;8.674;2023-07-20T22:11:04;99903.47;;;21.43;45.24
45323;BME280;31382;50.200;8.674;2023-07-20T22:16:07;99904.50;;;21.42;45.21
45323;BME280;31382;50.200;8.674;2023-07-20T22:21:08;99897.88;;;21.33;45.20
45323;BME280;31382;50.200;8.674;2023-07-20T22:26:12;99897.31;;;21.31;45.24
45323;BME280;31382;50.200;8.674;2023-07-20T22:31:14;99894.06;;;21.34;44.80
45323;BME280;31382;50.200;8.674;2023-07-20T22:36:15;99896.75;;;21.29;44.93
45323;BME280;31382;50.200;8.674;2023-07-20T22:41:16;99888.75;;;21.22;44.97
45323;BME280;31382;50.200;8.674;2023-07-20T22:46:18;99885.44;;;21.20;44.88
45323;BME280;31382;50.200;8.674;2023-07-20T22:51:19;99887.03;;;21.16;45.25
45323;BME280;31382;50.200;8.674;2023-07-20T22:56:21;99889.28;;;21.19;45.08
45323;BME280;31382;50.200;8.674;2023-07-20T23:01:23;99891.16;;;21.18;45.50
45323;BME280;31382;50.200;8.674;2023-07-20T23:06:26;99882.94;;;21.18;45.28
45323;BME280;31382;50.200;8.674;2023-07-20T23:11:28;99888.41;;;21.18;45.37
45323;BME280;31382;50.200;8.674;2023-07-20T23:16:29;99877.84;;;21.00;46.09
45323;BME280;31382;50.200;8.674;2023-07-20T23:21:31;99866.41;;;21.03;46.22
45323;BME280;31382;50.200;8.674;2023-07-20T23:26:32;99863.94;;;21.02;46.20
45323;BME280;31382;50.200;8.674;2023-07-20T23:31:34;99850.75;;;20.93;46.67
45323;BME280;31382;50.200;8.674;2023-07-20T23:36:36;99863.06;;;20.96;46.47
45323;BME280;31382;50.200;8.674;2023-07-20T23:41:37;99856.91;;;20.84;46.91
45323;BME280;31382;50.200;8.674;2023-07-20T23:46:39;99855.81;;;20.85;46.83
45323;BME280;31382;50.200;8.674;2023-07-20T23:51:40;99856.63;;;20.85;46.92
45323;BME280;31382;50.200;8.674;2023-07-20T23:56:42;99862.16;;;20.90;47.33
